sensor_id;sensor_type;location;lat;lon;timestamp;P1;durP1;ratioP1;P2;durP2;ratioP2
69636;SDS011;56860;51.144;16.954;2024-02-28T00:00:56;30.4;;;74.4;;
69636;SDS011;56860;51.144;16.954;2024-02-28T00:01:56;30.4;;;74.4;;
69636;SDS011;56860;51.144;16.954;2024-02-28T00:02:56;29.7;;;70.7;;
69636;SDS011;56860;51.144;16.954;2024-02-28T00:03:56;29.7;;;70.7;;
69636;SDS011;56860;51.144;16.954;2024-02-28T00:04:56;29.7;;;70.7;;
69636;SDS011;56860;51.144;16.954;2024-02-28T00:05:56;30.1;;;67.4;;
69636;SDS011;56860;51.144;16.954;2024-02-28T00:06:56;30.1;;;67.4;;
69636;SDS011;56860;51.144;16.954;2024-02-28T00:07:57;30.1;;;67.4;;
69636;SDS011;56860;51.144;16.954;2024-02-28T00:08:56;29.3;;;70.1;;
69636;SDS011;56860;51.144;16.954;2024-02-28T00:09:56;29.3;;;70.1;;
69636;SDS011;56860;51.144;16.954;2024-02-28T00:10:56;29.3;;;70.1;;
69636;SDS011;56860;51.144;16.954;2024-02-28T00:11:56;29.9;;;71.9;;
69636;SDS011;56860;51.144;16.954;2024-02-28T00:12:56;29.9;;;71.9;;
69636;SDS011;56860;51.144;16.954;2024-02-28T00:13:56;29.9;;;71.9;;
69636;SDS011;56860;51.144;16.954;2024-02-28T00:14:56;29.1;;;73.1;;
69636;SDS011;56860;51.144;16.954;2024-02-28T00:15:56;29.1;;;73.1;;
69636;SDS011;56860;51.144;16.954;2024-02-28T00:16:56;29.1;;;73.1;;
69636;SDS011;56860;51.144;16.954;2024-02-28T00:17:56;29.6;;;69.2;;
69636;SDS011;56860;51.144;16.954;2024-02-28T00:18:58;28.8;;;67.7;;
69636;SDS011;56860;51.144;16.954;2024-02-28T00:19:56;28.8;;;67.7;;
69636;SDS011;56860;51.144;16.954;2024-02-28T00:20:56;29.0;;;67.8;;
69636;SDS011;56860;51.144;16.954;2024-02-28T00:21:57;28.9;;;66.0;;
69636;SDS011;56860;51.144;16.954;2024-02-28T00:22:56;28.9;;;66.0;;
69636;SDS011;56860;51.144;16.954;2024-02-28T00:23:57;28.9;;;66.0;;
69636;SDS011;56860;51.144;16.954;2024-02-28T00:24:56;30.0;;;71.8;;
69636;SDS011;56860;51.144;16.954;2024-02-28T00:25:56;30.0;;;71.8;;
69636;SDS011;56860;51.144;16.954;2024-02-28T00:26:56;30.0;;;71.8;;
69636;SDS011;56860;51.144;16.954;2024-02-28T00:27:56;28.7;;;64.9;;
69636;SDS011;56860;51.144;16.954;2024-02-28T00:28:56;28.7;;;64.9;;
69636;SDS011;56860;51.144;16.954;2024-02-28T00:29:56;28.7;;;64.9;;
69636;SDS011;56860;51.144;16.954;2024-02-28T00:30:56;29.7;;;68.6;;
69636;SDS011;56860;51.144;16.954;2024-02-28T00:31:56;29.7;;;68.6;;
69636;SDS011;56860;51.144;16.954;2024-02-28T00:32:56;29.7;;;68.6;;
69636;SDS011;56860;51.144;16.954;2024-02-28T00:33:57;29.1;;;66.2;;
69636;SDS011;56860;51.144;16.954;2024-02-28T00:34:56;29.1;;;66.2;;
69636;SDS011;56860;51.144;16.954;2024-02-28T00:35:56;29.1;;;66.2;;
69636;SDS011;56860;51.144;16.954;2024-02-28T00:36:56;29.9;;;69.7;;
69636;SDS011;56860;51.144;16.954;2024-02-28T00:37:56;29.9;;;69.7;;
69636;SDS011;56860;51.144;16.954;2024-02-28T00:38:56;29.9;;;69.7;;
69636;SDS011;56860;51.144;16.954;2024-02-28T00:39:57;30.0;;;68.8;;
69636;SDS011;56860;51.144;16.954;2024-02-28T00:40:56;30.0;;;68.8;;
69636;SDS011;56860;51.144;16.954;2024-02-28T00:41:58;30.0;;;68.8;;
69636;SDS011;56860;51.144;16.954;2024-02-28T00:42:56;29.4;;;63.5;;
69636;SDS011;56860;51.144;16.954;2024-02-28T00:43:56;29.4;;;63.5;;
69636;SDS011;56860;51.144;16.954;2024-02-28T00:44:56;29.4;;;63.5;;
69636;SDS011;56860;51.144;16.954;2024-02-28T00:45:56;30.0;;;73.3;;
69636;SDS011;56860;51.144;16.954;2024-02-28T00:46:56;29.0;;;69.3;;
69636;SDS011;56860;51.144;16.954;2024-02-28T00:47:56;29.0;;;69.3;;
69636;SDS011;56860;51.144;16.954;2024-02-28T00:48:57;24.9;;;61.0;;
69636;SDS011;56860;51.144;16.954;2024-02-28T00:49:57;29.8;;;71.3;;
69636;SDS011;56860;51.144;16.954;2024-02-28T00:50:57;29.8;;;71.3;;
69636;SDS011;56860;51.144;16.954;2024-02-28T00:51:57;29.8;;;71.3;;
69636;SDS011;56860;51.144;16.954;2024-02-28T00:52:56;30.7;;;71.8;;
69636;SDS011;56860;51.144;16.954;2024-02-28T00:53:57;30.7;;;71.8;;
69636;SDS011;56860;51.144;16.954;2024-02-28T00:54:56;30.7;;;71.8;;
69636;SDS011;56860;51.144;16.954;2024-02-28T00:55:56;30.0;;;71.2;;
69636;SDS011;56860;51.144;16.954;2024-02-28T00:56:57;30.0;;;71.2;;
69636;SDS011;56860;51.144;16.954;2024-02-28T00:57:57;30.0;;;71.2;;
69636;SDS011;56860;51.144;16.954;2024-02-28T00:58:56;31.0;;;67.8;;
69636;SDS011;56860;51.144;16.954;2024-02-28T00:59:57;31.0;;;67.8;;
69636;SDS011;56860;51.144;16.954;2024-02-28T01:00:57;31.0;;;67.8;;
69636;SDS011;56860;51.144;16.954;2024-02-28T01:01:56;32.1;;;77.0;;
69636;SDS011;56860;51.144;16.954;2024-02-28T01:02:56;32.1;;;77.0;;
69636;SDS011;56860;51.144;16.954;2024-02-28T01:03:57;32.1;;;77.0;;
69636;SDS011;56860;51.144;16.954;2024-02-28T01:04:56;31.9;;;71.2;;
69636;SDS011;56860;51.144;16.954;2024-02-28T01:05:56;31.9;;;71.2;;
69636;SDS011;56860;51.144;16.954;2024-02-28T01:06:57;31.9;;;71.2;;
69636;SDS011;56860;51.144;16.954;2024-02-28T01:07:57;33.0;;;74.8;;
69636;SDS011;56860;51.144;16.954;2024-02-28T01:08:56;33.0;;;74.8;;
69636;SDS011;56860;51.144;16.954;2024-02-28T01:09:57;33.0;;;74.8;;
69636;SDS011;56860;51.144;16.954;2024-02-28T01:10:57;32.1;;;73.3;;
69636;SDS011;56860;51.144;16.954;2024-02-28T01:11:57;32.1;;;73.3;;
69636;SDS011;56860;51.144;16.954;2024-02-28T01:12:57;32.1;;;73.3;;
69636;SDS011;56860;51.144;16.954;2024-02-28T01:13:57;32.2;;;73.4;;
69636;SDS011;56860;51.144;16.954;2024-02-28T01:14:57;32.2;;;73.4;;
69636;SDS011;56860;51.144;16.954;2024-02-28T01:15:57;32.2;;;73.4;;
69636;SDS011;56860;51.144;16.954;2024-02-28T01:16:57;33.5;;;79.2;;
69636;SDS011;56860;51.144;16.954;2024-02-28T01:17:57;32.8;;;76.4;;
69636;SDS011;56860;51.144;16.954;2024-02-28T01:18:57;32.8;;;76.4;;
69636;SDS011;56860;51.144;16.954;2024-02-28T01:19:57;32.8;;;76.4;;
69636;SDS011;56860;51.144;16.954;2024-02-28T01:20:57;32.1;;;74.1;;
69636;SDS011;56860;51.144;16.954;2024-02-28T01:21:57;32.1;;;74.1;;
69636;SDS011;56860;51.144;16.954;2024-02-28T01:22:57;32.1;;;74.1;;
69636;SDS011;56860;51.144;16.954;2024-02-28T01:23:57;32.3;;;77.6;;
69636;SDS011;56860;51.144;16.954;2024-02-28T01:24:57;32.3;;;77.6;;
69636;SDS011;56860;51.144;16.954;2024-02-28T01:25:57;32.3;;;77.6;;
69636;SDS011;56860;51.144;16.954;2024-02-28T01:26:57;31.8;;;76.7;;
69636;SDS011;56860;51.144;16.954;2024-02-28T01:27:57;31.8;;;76.7;;
69636;SDS011;56860;51.144;16.954;2024-02-28T01:28:57;31.8;;;76.7;;
69636;SDS011;56860;51.144;16.954;2024-02-28T01:29:57;34.0;;;81.7;;
69636;SDS011;56860;51.144;16.954;2024-02-28T01:30:57;34.0;;;81.7;;
69636;SDS011;56860;51.144;16.954;2024-02-28T01:31:57;34.0;;;81.7;;
69636;SDS011;56860;51.144;16.954;2024-02-28T01:32:57;33.5;;;82.8;;
69636;SDS011;56860;51.144;16.954;2024-02-28T01:33:57;33.5;;;82.8;;
69636;SDS011;56860;51.144;16.954;2024-02-28T01:34:57;33.5;;;82.8;;
69636;SDS011;56860;51.144;16.954;2024-02-28T01:35:57;33.6;;;85.6;;
69636;SDS011;56860;51.144;16.954;2024-02-28T01:36:57;33.6;;;85.6;;
69636;SDS011;56860;51.144;16.954;2024-02-28T01:37:57;33.6;;;85.6;;
69636;SDS011;56860;51.144;16.954;2024-02-28T01:38:57;33.9;;;81.5;;
69636;SDS011;56860;51.144;16.954;2024-02-28T01:39:57;33.9;;;81.5;;
69636;SDS011;56860;51.144;16.954;2024-02-28T01:40:57;33.9;;;81.5;;
69636;SDS011;56860;51.144;16.954;2024-02-28T01:41:57;34.6;;;85.8;;
69636;SDS011;56860;51.144;16.954;2024-02-28T01:43:02;34.6;;;85.8;;
69636;SDS011;56860;51.144;16.954;2024-02-28T01:43:57;34.6;;;85.8;;
69636;SDS011;56860;51.144;16.954;2024-02-28T01:44:57;34.6;;;90.9;;
69636;SDS011;56860;51.144;16.954;2024-02-28T01:45:57;34.6;;;90.9;;
69636;SDS011;56860;51.144;16.954;2024-02-28T01:46:57;34.6;;;90.9;;
69636;SDS011;56860;51.144;16.954;2024-02-28T01:47:57;36.5;;;94.4;;
69636;SDS011;56860;51.144;16.954;2024-02-28T01:48:57;35.5;;;94.3;;
69636;SDS011;56860;51.144;16.954;2024-02-28T01:49:57;35.5;;;94.3;;
69636;SDS011;56860;51.144;16.954;2024-02-28T01:50:57;35.5;;;94.3;;
69636;SDS011;56860;51.144;16.954;2024-02-28T01:51:57;34.0;;;86.8;;
69636;SDS011;56860;51.144;16.954;2024-02-28T01:52:57;34.0;;;86.8;;
69636;SDS011;56860;51.144;16.954;2024-02-28T01:53:57;34.0;;;86.8;;
69636;SDS011;56860;51.144;16.954;2024-02-28T01:54:57;35.4;;;93.4;;
69636;SDS011;56860;51.144;16.954;2024-02-28T01:55:57;35.4;;;93.4;;
69636;SDS011;56860;51.144;16.954;2024-02-28T01:56:57;35.4;;;93.4;;
69636;SDS011;56860;51.144;16.954;2024-02-28T01:57:57;34.5;;;88.1;;
69636;SDS011;56860;51.144;16.954;2024-02-28T01:58:57;34.5;;;88.1;;
69636;SDS011;56860;51.144;16.954;2024-02-28T01:59:57;34.5;;;88.1;;
69636;SDS011;56860;51.144;16.954;2024-02-28T02:00:57;36.2;;;99.6;;
69636;SDS011;56860;51.144;16.954;2024-02-28T02:01:57;36.2;;;99.6;;
69636;SDS011;56860;51.144;16.954;2024-02-28T02:02:57;36.2;;;99.6;;
69636;SDS011;56860;51.144;16.954;2024-02-28T02:03:57;36.8;;;107.4;;
69636;SDS011;56860;51.144;16.954;2024-02-28T02:04:57;36.8;;;107.4;;
69636;SDS011;56860;51.144;16.954;2024-02-28T02:05:57;36.8;;;107.4;;
69636;SDS011;56860;51.144;16.954;2024-02-28T02:06:57;36.6;;;99.8;;
69636;SDS011;56860;51.144;16.954;2024-02-28T02:07:57;36.6;;;99.8;;
69636;SDS011;56860;51.144;16.954;2024-02-28T02:08:57;36.6;;;99.8;;
69636;SDS011;56860;51.144;16.954;2024-02-28T02:09:57;36.2;;;104.0;;
69636;SDS011;56860;51.144;16.954;2024-02-28T02:10:57;36.2;;;104.0;;
69636;SDS011;56860;51.144;16.954;2024-02-28T02:11:57;36.2;;;104.0;;
69636;SDS011;56860;51.144;16.954;2024-02-28T02:13:03;36.3;;;102.3;;
69636;SDS011;56860;51.144;16.954;2024-02-28T02:13:57;36.3;;;102.3;;
69636;SDS011;56860;51.144;16.954;2024-02-28T02:14:57;36.3;;;102.3;;
69636;SDS011;56860;51.144;16.954;2024-02-28T02:15:57;37.4;;;107.7;;
69636;SDS011;56860;51.144;16.954;2024-02-28T02:16:57;36.6;;;102.8;;
69636;SDS011;56860;51.144;16.954;2024-02-28T02:17:57;36.6;;;102.8;;
69636;SDS011;56860;51.144;16.954;2024-02-28T02:18:57;38.0;;;113.3;;
69636;SDS011;56860;51.144;16.954;2024-02-28T02:19:57;37.5;;;110.6;;
69636;SDS011;56860;51.144;16.954;2024-02-28T02:20:58;37.5;;;110.6;;
69636;SDS011;56860;51.144;16.954;2024-02-28T02:21:57;37.5;;;110.6;;
69636;SDS011;56860;51.144;16.954;2024-02-28T02:22:57;37.4;;;103.4;;
69636;SDS011;56860;51.144;16.954;2024-02-28T02:23:57;37.4;;;103.4;;
69636;SDS011;56860;51.144;16.954;2024-02-28T02:24:57;37.4;;;103.4;;
69636;SDS011;56860;51.144;16.954;2024-02-28T02:25:57;36.9;;;103.6;;
69636;SDS011;56860;51.144;16.954;2024-02-28T02:26:57;36.9;;;103.6;;
69636;SDS011;56860;51.144;16.954;2024-02-28T02:27:57;36.9;;;103.6;;
69636;SDS011;56860;51.144;16.954;2024-02-28T02:28:57;39.6;;;118.4;;
69636;SDS011;56860;51.144;16.954;2024-02-28T02:29:57;39.6;;;118.4;;
69636;SDS011;56860;51.144;16.954;2024-02-28T02:30:57;39.6;;;118.4;;
69636;SDS011;56860;51.144;16.954;2024-02-28T02:31:57;36.9;;;114.0;;
69636;SDS011;56860;51.144;16.954;2024-02-28T02:32:57;36.9;;;114.0;;
69636;SDS011;56860;51.144;16.954;2024-02-28T02:35:58;38.7;;;115.9;;
69636;SDS011;56860;51.144;16.954;2024-02-28T02:36:58;38.7;;;115.9;;
69636;SDS011;56860;51.144;16.954;2024-02-28T02:37:57;37.6;;;110.3;;
69636;SDS011;56860;51.144;16.954;2024-02-28T02:38:57;36.6;;;108.5;;
69636;SDS011;56860;51.144;16.954;2024-02-28T02:39:57;36.6;;;108.5;;
69636;SDS011;56860;51.144;16.954;2024-02-28T02:40:57;36.6;;;108.5;;
69636;SDS011;56860;51.144;16.954;2024-02-28T02:41:57;38.7;;;118.2;;
69636;SDS011;56860;51.144;16.954;2024-02-28T02:42:57;38.7;;;118.2;;
69636;SDS011;56860;51.144;16.954;2024-02-28T02:43:57;38.7;;;118.2;;
69636;SDS011;56860;51.144;16.954;2024-02-28T02:44:57;35.6;;;106.1;;
69636;SDS011;56860;51.144;16.954;2024-02-28T02:45:57;35.6;;;106.1;;
69636;SDS011;56860;51.144;16.954;2024-02-28T02:46:57;35.6;;;106.1;;
69636;SDS011;56860;51.144;16.954;2024-02-28T02:47:57;35.9;;;111.5;;
69636;SDS011;56860;51.144;16.954;2024-02-28T02:48:57;35.9;;;111.5;;
69636;SDS011;56860;51.144;16.954;2024-02-28T02:49:57;35.9;;;111.5;;
69636;SDS011;56860;51.144;16.954;2024-02-28T02:50:57;37.5;;;117.0;;
69636;SDS011;56860;51.144;16.954;2024-02-28T02:51:57;37.5;;;117.0;;
69636;SDS011;56860;51.144;16.954;2024-02-28T02:52:57;37.5;;;117.0;;
69636;SDS011;56860;51.144;16.954;2024-02-28T02:53:57;36.9;;;110.6;;
69636;SDS011;56860;51.144;16.954;2024-02-28T02:54:57;36.9;;;110.6;;
69636;SDS011;56860;51.144;16.954;2024-02-28T02:55:57;36.9;;;110.6;;
69636;SDS011;56860;51.144;16.954;2024-02-28T02:56:57;36.5;;;122.5;;
69636;SDS011;56860;51.144;16.954;2024-02-28T02:57:57;36.5;;;122.5;;
69636;SDS011;56860;51.144;16.954;2024-02-28T02:58:57;36.5;;;122.5;;
69636;SDS011;56860;51.144;16.954;2024-02-28T02:59:57;35.9;;;106.4;;
69636;SDS011;56860;51.144;16.954;2024-02-28T03:00:57;35.9;;;106.4;;
69636;SDS011;56860;51.144;16.954;2024-02-28T03:01:57;35.9;;;106.4;;
69636;SDS011;56860;51.144;16.954;2024-02-28T03:02:57;36.4;;;115.2;;
69636;SDS011;56860;51.144;16.954;2024-02-28T03:03:57;36.4;;;115.2;;
69636;SDS011;56860;51.144;16.954;2024-02-28T03:04:57;36.4;;;115.2;;
69636;SDS011;56860;51.144;16.954;2024-02-28T03:05:57;36.4;;;105.5;;
69636;SDS011;56860;51.144;16.954;2024-02-28T03:06:57;36.4;;;105.5;;
69636;SDS011;56860;51.144;16.954;2024-02-28T03:07:57;36.4;;;105.5;;
69636;SDS011;56860;51.144;16.954;2024-02-28T03:08:57;35.7;;;105.6;;
69636;SDS011;56860;51.144;16.954;2024-02-28T03:09:57;35.7;;;105.6;;
69636;SDS011;56860;51.144;16.954;2024-02-28T03:10:57;35.7;;;105.6;;
69636;SDS011;56860;51.144;16.954;2024-02-28T03:11:57;35.1;;;96.5;;
69636;SDS011;56860;51.144;16.954;2024-02-28T03:12:57;34.4;;;94.5;;
69636;SDS011;56860;51.144;16.954;2024-02-28T03:13:57;34.4;;;94.5;;
69636;SDS011;56860;51.144;16.954;2024-02-28T03:14:57;34.4;;;94.5;;
69636;SDS011;56860;51.144;16.954;2024-02-28T03:15:57;35.3;;;103.9;;
69636;SDS011;56860;51.144;16.954;2024-02-28T03:16:57;35.3;;;103.9;;
69636;SDS011;56860;51.144;16.954;2024-02-28T03:17:57;35.3;;;103.9;;
69636;SDS011;56860;51.144;16.954;2024-02-28T03:18:57;36.7;;;104.4;;
69636;SDS011;56860;51.144;16.954;2024-02-28T03:19:57;36.7;;;104.4;;
69636;SDS011;56860;51.144;16.954;2024-02-28T03:20:57;36.7;;;104.4;;
69636;SDS011;56860;51.144;16.954;2024-02-28T03:21:57;35.3;;;100.6;;
69636;SDS011;56860;51.144;16.954;2024-02-28T03:22:57;35.3;;;100.6;;
69636;SDS011;56860;51.144;16.954;2024-02-28T03:23:57;35.3;;;100.6;;
69636;SDS011;56860;51.144;16.954;2024-02-28T03:24:57;35.3;;;97.7;;
69636;SDS011;56860;51.144;16.954;2024-02-28T03:25:57;35.3;;;97.7;;
69636;SDS011;56860;51.144;16.954;2024-02-28T03:26:57;35.3;;;97.7;;
69636;SDS011;56860;51.144;16.954;2024-02-28T03:27:57;35.3;;;104.3;;
69636;SDS011;56860;51.144;16.954;2024-02-28T03:28:57;35.3;;;104.3;;
69636;SDS011;56860;51.144;16.954;2024-02-28T03:29:57;35.3;;;104.3;;
69636;SDS011;56860;51.144;16.954;2024-02-28T03:30:57;33.3;;;103.3;;
69636;SDS011;56860;51.144;16.954;2024-02-28T03:31:58;33.3;;;103.3;;
69636;SDS011;56860;51.144;16.954;2024-02-28T03:32:57;33.3;;;103.3;;
69636;SDS011;56860;51.144;16.954;2024-02-28T03:33:57;33.8;;;91.6;;
69636;SDS011;56860;51.144;16.954;2024-02-28T03:34:57;33.8;;;91.6;;
69636;SDS011;56860;51.144;16.954;2024-02-28T03:35:57;33.8;;;91.6;;
69636;SDS011;56860;51.144;16.954;2024-02-28T03:36:57;34.6;;;97.4;;
69636;SDS011;56860;51.144;16.954;2024-02-28T03:37:57;34.6;;;97.4;;
69636;SDS011;56860;51.144;16.954;2024-02-28T03:38:57;34.6;;;97.4;;
69636;SDS011;56860;51.144;16.954;2024-02-28T03:39:57;34.3;;;96.7;;
69636;SDS011;56860;51.144;16.954;2024-02-28T03:40:57;34.3;;;96.7;;
69636;SDS011;56860;51.144;16.954;2024-02-28T03:41:57;34.3;;;96.7;;
69636;SDS011;56860;51.144;16.954;2024-02-28T03:42:57;36.1;;;106.0;;
69636;SDS011;56860;51.144;16.954;2024-02-28T03:43:57;36.1;;;106.0;;
69636;SDS011;56860;51.144;16.954;2024-02-28T03:44:57;36.1;;;106.0;;
69636;SDS011;56860;51.144;16.954;2024-02-28T03:45:57;34.9;;;112.2;;
69636;SDS011;56860;51.144;16.954;2024-02-28T03:46:57;34.9;;;112.2;;
69636;SDS011;56860;51.144;16.954;2024-02-28T03:47:57;34.9;;;112.2;;
69636;SDS011;56860;51.144;16.954;2024-02-28T03:48:57;38.2;;;129.7;;
69636;SDS011;56860;51.144;16.954;2024-02-28T03:49:57;37.3;;;125.5;;
69636;SDS011;56860;51.144;16.954;2024-02-28T03:50:57;37.3;;;125.5;;
69636;SDS011;56860;51.144;16.954;2024-02-28T03:51:57;28.1;;;82.5;;
69636;SDS011;56860;51.144;16.954;2024-02-28T03:52:57;34.4;;;106.4;;
69636;SDS011;56860;51.144;16.954;2024-02-28T03:53:57;34.4;;;106.4;;
69636;SDS011;56860;51.144;16.954;2024-02-28T03:54:57;34.4;;;106.4;;
69636;SDS011;56860;51.144;16.954;2024-02-28T03:55:57;36.3;;;115.8;;
69636;SDS011;56860;51.144;16.954;2024-02-28T03:56:57;36.3;;;115.8;;
69636;SDS011;56860;51.144;16.954;2024-02-28T03:57:57;36.3;;;115.8;;
69636;SDS011;56860;51.144;16.954;2024-02-28T03:58:57;36.4;;;107.9;;
69636;SDS011;56860;51.144;16.954;2024-02-28T03:59:57;36.4;;;107.9;;
69636;SDS011;56860;51.144;16.954;2024-02-28T04:00:57;36.4;;;107.9;;
69636;SDS011;56860;51.144;16.954;2024-02-28T04:01:57;35.6;;;107.5;;
69636;SDS011;56860;51.144;16.954;2024-02-28T04:02:57;35.6;;;107.5;;
69636;SDS011;56860;51.144;16.954;2024-02-28T04:03:57;35.6;;;107.5;;
69636;SDS011;56860;51.144;16.954;2024-02-28T04:04:57;35.6;;;121.7;;
69636;SDS011;56860;51.144;16.954;2024-02-28T04:05:57;35.6;;;121.7;;
69636;SDS011;56860;51.144;16.954;2024-02-28T04:06:57;35.6;;;121.7;;
69636;SDS011;56860;51.144;16.954;2024-02-28T04:07:57;35.2;;;108.7;;
69636;SDS011;56860;51.144;16.954;2024-02-28T04:08:57;35.2;;;108.7;;
69636;SDS011;56860;51.144;16.954;2024-02-28T04:09:57;35.2;;;108.7;;
69636;SDS011;56860;51.144;16.954;2024-02-28T04:10:57;unavailable;;;unavailable;;
69636;SDS011;56860;51.144;16.954;2024-02-28T04:11:57;36.9;;;110.1;;
69636;SDS011;56860;51.144;16.954;2024-02-28T04:12:57;36.9;;;110.1;;
69636;SDS011;56860;51.144;16.954;2024-02-28T04:13:57;33.9;;;112.1;;
69636;SDS011;56860;51.144;16.954;2024-02-28T04:14:57;33.9;;;112.1;;
69636;SDS011;56860;51.144;16.954;2024-02-28T04:15:57;33.9;;;112.1;;
69636;SDS011;56860;51.144;16.954;2024-02-28T04:16:57;36.4;;;107.3;;
69636;SDS011;56860;51.144;16.954;2024-02-28T04:17:57;35.8;;;104.1;;
69636;SDS011;56860;51.144;16.954;2024-02-28T04:18:57;35.8;;;104.1;;
69636;SDS011;56860;51.144;16.954;2024-02-28T04:19:57;35.8;;;104.1;;
69636;SDS011;56860;51.144;16.954;2024-02-28T04:20:57;34.3;;;105.6;;
69636;SDS011;56860;51.144;16.954;2024-02-28T04:21:57;34.3;;;105.6;;
69636;SDS011;56860;51.144;16.954;2024-02-28T04:22:57;34.3;;;105.6;;
69636;SDS011;56860;51.144;16.954;2024-02-28T04:23:57;35.4;;;104.3;;
69636;SDS011;56860;51.144;16.954;2024-02-28T04:24:57;35.4;;;104.3;;
69636;SDS011;56860;51.144;16.954;2024-02-28T04:25:57;35.4;;;104.3;;
69636;SDS011;56860;51.144;16.954;2024-02-28T04:26:57;33.8;;;102.4;;
69636;SDS011;56860;51.144;16.954;2024-02-28T04:27:57;33.8;;;102.4;;
69636;SDS011;56860;51.144;16.954;2024-02-28T04:28:57;33.8;;;102.4;;
69636;SDS011;56860;51.144;16.954;2024-02-28T04:29:57;34.1;;;100.7;;
69636;SDS011;56860;51.144;16.954;2024-02-28T04:30:57;34.1;;;100.7;;
69636;SDS011;56860;51.144;16.954;2024-02-28T04:31:57;34.1;;;100.7;;
69636;SDS011;56860;51.144;16.954;2024-02-28T04:32:57;33.0;;;95.6;;
69636;SDS011;56860;51.144;16.954;2024-02-28T04:33:57;33.0;;;95.6;;
69636;SDS011;56860;51.144;16.954;2024-02-28T04:34:57;33.0;;;95.6;;
69636;SDS011;56860;51.144;16.954;2024-02-28T04:35:57;33.7;;;96.1;;
69636;SDS011;56860;51.144;16.954;2024-02-28T04:36:57;33.7;;;96.1;;
69636;SDS011;56860;51.144;16.954;2024-02-28T04:37:57;33.7;;;96.1;;
69636;SDS011;56860;51.144;16.954;2024-02-28T04:38:57;32.8;;;97.0;;
69636;SDS011;56860;51.144;16.954;2024-02-28T04:39:57;32.8;;;97.0;;
69636;SDS011;56860;51.144;16.954;2024-02-28T04:40:57;32.8;;;97.0;;
69636;SDS011;56860;51.144;16.954;2024-02-28T04:41:57;32.2;;;95.8;;
69636;SDS011;56860;51.144;16.954;2024-02-28T04:42:57;31.2;;;94.1;;
69636;SDS011;56860;51.144;16.954;2024-02-28T04:43:57;31.2;;;94.1;;
69636;SDS011;56860;51.144;16.954;2024-02-28T04:44:57;31.2;;;94.1;;
69636;SDS011;56860;51.144;16.954;2024-02-28T04:45:57;31.7;;;90.7;;
69636;SDS011;56860;51.144;16.954;2024-02-28T04:46:57;31.7;;;90.7;;
69636;SDS011;56860;51.144;16.954;2024-02-28T04:47:57;31.7;;;90.7;;
69636;SDS011;56860;51.144;16.954;2024-02-28T04:48:57;31.2;;;85.1;;
69636;SDS011;56860;51.144;16.954;2024-02-28T04:49:57;31.2;;;85.1;;
69636;SDS011;56860;51.144;16.954;2024-02-28T04:50:57;31.2;;;85.1;;
69636;SDS011;56860;51.144;16.954;2024-02-28T04:51:57;31.4;;;88.2;;
69636;SDS011;56860;51.144;16.954;2024-02-28T04:52:57;31.4;;;88.2;;
69636;SDS011;56860;51.144;16.954;2024-02-28T04:53:57;31.4;;;88.2;;
69636;SDS011;56860;51.144;16.954;2024-02-28T04:54:57;29.5;;;84.7;;
69636;SDS011;56860;51.144;16.954;2024-02-28T04:55:57;29.5;;;84.7;;
69636;SDS011;56860;51.144;16.954;2024-02-28T04:56:57;29.5;;;84.7;;
69636;SDS011;56860;51.144;16.954;2024-02-28T04:57:57;30.5;;;83.5;;
69636;SDS011;56860;51.144;16.954;2024-02-28T04:58:57;30.5;;;83.5;;
69636;SDS011;56860;51.144;16.954;2024-02-28T04:59:57;30.5;;;83.5;;
69636;SDS011;56860;51.144;16.954;2024-02-28T05:00:57;30.1;;;83.9;;
69636;SDS011;56860;51.144;16.954;2024-02-28T05:01:57;30.1;;;83.9;;
69636;SDS011;56860;51.144;16.954;2024-02-28T05:02:57;30.1;;;83.9;;
69636;SDS011;56860;51.144;16.954;2024-02-28T05:03:57;29.3;;;83.8;;
69636;SDS011;56860;51.144;16.954;2024-02-28T05:04:57;29.3;;;83.8;;
69636;SDS011;56860;51.144;16.954;2024-02-28T05:05:57;29.3;;;83.8;;
69636;SDS011;56860;51.144;16.954;2024-02-28T05:06:57;29.0;;;74.9;;
69636;SDS011;56860;51.144;16.954;2024-02-28T05:07:57;29.0;;;74.9;;
69636;SDS011;56860;51.144;16.954;2024-02-28T05:08:57;29.0;;;74.9;;
69636;SDS011;56860;51.144;16.954;2024-02-28T05:09:57;29.0;;;74.9;;
69636;SDS011;56860;51.144;16.954;2024-02-28T05:10:57;27.8;;;75.1;;
69636;SDS011;56860;51.144;16.954;2024-02-28T05:11:57;27.8;;;75.1;;
69636;SDS011;56860;51.144;16.954;2024-02-28T05:12:57;27.8;;;75.1;;
69636;SDS011;56860;51.144;16.954;2024-02-28T05:13:57;26.9;;;69.9;;
69636;SDS011;56860;51.144;16.954;2024-02-28T05:14:57;26.9;;;69.9;;
69636;SDS011;56860;51.144;16.954;2024-02-28T05:15:57;26.9;;;69.9;;
69636;SDS011;56860;51.144;16.954;2024-02-28T05:16:57;26.7;;;66.6;;
69636;SDS011;56860;51.144;16.954;2024-02-28T05:17:57;26.7;;;66.6;;
69636;SDS011;56860;51.144;16.954;2024-02-28T05:18:57;26.7;;;66.6;;
69636;SDS011;56860;51.144;16.954;2024-02-28T05:19:57;27.5;;;67.5;;
69636;SDS011;56860;51.144;16.954;2024-02-28T05:20:57;27.5;;;67.5;;
69636;SDS011;56860;51.144;16.954;2024-02-28T05:21:57;27.5;;;67.5;;
69636;SDS011;56860;51.144;16.954;2024-02-28T05:22:57;27.0;;;74.8;;
69636;SDS011;56860;51.144;16.954;2024-02-28T05:23:57;27.0;;;74.8;;
69636;SDS011;56860;51.144;16.954;2024-02-28T05:24:57;27.0;;;74.8;;
69636;SDS011;56860;51.144;16.954;2024-02-28T05:25:57;26.9;;;65.9;;
69636;SDS011;56860;51.144;16.954;2024-02-28T05:26:57;26.9;;;65.9;;
69636;SDS011;56860;51.144;16.954;2024-02-28T05:27:57;26.9;;;65.9;;
69636;SDS011;56860;51.144;16.954;2024-02-28T05:28:57;26.1;;;68.1;;
69636;SDS011;56860;51.144;16.954;2024-02-28T05:29:57;26.1;;;68.1;;
69636;SDS011;56860;51.144;16.954;2024-02-28T05:30:57;26.1;;;68.1;;
69636;SDS011;56860;51.144;16.954;2024-02-28T05:31:57;26.8;;;69.8;;
69636;SDS011;56860;51.144;16.954;2024-02-28T05:32:57;26.8;;;69.8;;
69636;SDS011;56860;51.144;16.954;2024-02-28T05:33:57;26.8;;;69.8;;
69636;SDS011;56860;51.144;16.954;2024-02-28T05:34:57;26.2;;;64.2;;
69636;SDS011;56860;51.144;16.954;2024-02-28T05:35:57;26.2;;;64.2;;
69636;SDS011;56860;51.144;16.954;2024-02-28T05:36:57;26.2;;;64.2;;
69636;SDS011;56860;51.144;16.954;2024-02-28T05:37:57;19.2;;;51.1;;
69636;SDS011;56860;51.144;16.954;2024-02-28T05:38:58;26.2;;;64.6;;
69636;SDS011;56860;51.144;16.954;2024-02-28T05:39:57;26.2;;;64.6;;
69636;SDS011;56860;51.144;16.954;2024-02-28T05:40:57;26.2;;;64.6;;
69636;SDS011;56860;51.144;16.954;2024-02-28T05:41:57;26.3;;;57.2;;
69636;SDS011;56860;51.144;16.954;2024-02-28T05:42:57;26.3;;;57.2;;
69636;SDS011;56860;51.144;16.954;2024-02-28T05:43:57;26.3;;;57.2;;
69636;SDS011;56860;51.144;16.954;2024-02-28T05:44:57;24.4;;;56.4;;
69636;SDS011;56860;51.144;16.954;2024-02-28T05:45:58;24.4;;;56.4;;
69636;SDS011;56860;51.144;16.954;2024-02-28T05:46:57;24.4;;;56.4;;
69636;SDS011;56860;51.144;16.954;2024-02-28T05:47:57;23.2;;;54.1;;
69636;SDS011;56860;51.144;16.954;2024-02-28T05:48:57;23.2;;;54.1;;
69636;SDS011;56860;51.144;16.954;2024-02-28T05:49:57;23.2;;;54.1;;
69636;SDS011;56860;51.144;16.954;2024-02-28T05:50:57;24.0;;;55.7;;
69636;SDS011;56860;51.144;16.954;2024-02-28T05:51:57;24.0;;;55.7;;
69636;SDS011;56860;51.144;16.954;2024-02-28T05:52:57;24.0;;;55.7;;
69636;SDS011;56860;51.144;16.954;2024-02-28T05:53:57;23.2;;;49.5;;
69636;SDS011;56860;51.144;16.954;2024-02-28T05:54:57;23.2;;;49.5;;
69636;SDS011;56860;51.144;16.954;2024-02-28T05:55:57;23.2;;;49.5;;